sensor_id;sensor_type;location;lat;lon;timestamp;pressure;altitude;pressure_sealevel;temperature;humidity
72909;BME280;61051;62.624;17.950;2023-06-14T00:00:00;102152.69;;;10.16;86.26
72909;BME280;61051;62.624;17.950;2023-06-14T00:02:29;102154.52;;;10.19;86.28
72909;BME280;61051;62.624;17.950;2023-06-14T00:04:58;102155.11;;;9.99;86.36
72909;BME280;61051;62.624;17.950;2023-06-14T00:07:34;102162.42;;;10.05;86.58
72909;BME280;61051;62.624;17.950;2023-06-14T00:10:04;102164.79;;;9.91;86.77
72909;BME280;61051;62.624;17.950;2023-06-14T00:12:33;102165.81;;;9.88;86.92
72909;BME280;61051;62.624;17.950;2023-06-14T00:15:03;102165.58;;;10.00;86.31
72909;BME280;61051;62.624;17.950;2023-06-14T00:17:32;102167.21;;;9.98;86.13
72909;BME280;61051;62.624;17.950;2023-06-14T00:20:03;102166.84;;;9.93;85.88
72909;BME280;61051;62.624;17.950;2023-06-14T00:22:32;102164.67;;;9.91;85.76
72909;BME280;61051;62.624;17.950;2023-06-14T00:25:02;102169.03;;;9.87;86.67
72909;BME280;61051;62.624;17.950;2023-06-14T00:27:31;102170.03;;;9.77;86.13
72909;BME280;61051;62.624;17.950;2023-06-14T00:30:01;102169.13;;;9.77;86.49
72909;BME280;61051;62.624;17.950;2023-06-14T00:32:29;102171.66;;;9.88;86.98
72909;BME280;61051;62.624;17.950;2023-06-14T00:34:57;102171.06;;;9.89;86.96
72909;BME280;61051;62.624;17.950;2023-06-14T00:37:27;102172.63;;;9.83;87.13
72909;BME280;61051;62.624;17.950;2023-06-14T00:39:56;102177.12;;;9.79;85.70
72909;BME280;61051;62.624;17.950;2023-06-14T00:42:27;102182.97;;;9.83;86.47
72909;BME280;61051;62.624;17.950;2023-06-14T00:44:56;102187.87;;;9.69;87.03
72909;BME280;61051;62.624;17.950;2023-06-14T00:47:25;102187.73;;;9.65;87.68
72909;BME280;61051;62.624;17.950;2023-06-14T00:49:56;102189.09;;;9.72;86.69
72909;BME280;61051;62.624;17.950;2023-06-14T00:52:24;102190.90;;;9.69;87.80
72909;BME280;61051;62.624;17.950;2023-06-14T00:54:54;102191.48;;;9.85;88.32
72909;BME280;61051;62.624;17.950;2023-06-14T00:57:23;102191.43;;;9.85;90.02
72909;BME280;61051;62.624;17.950;2023-06-14T00:59:53;102188.35;;;10.07;89.61
72909;BME280;61051;62.624;17.950;2023-06-14T01:02:22;102189.27;;;10.08;86.94
72909;BME280;61051;62.624;17.950;2023-06-14T01:04:51;102188.29;;;10.06;87.96
72909;BME280;61051;62.624;17.950;2023-06-14T01:07:28;102192.43;;;10.01;86.32
72909;BME280;61051;62.624;17.950;2023-06-14T01:10:12;102195.35;;;9.96;85.97
72909;BME280;61051;62.624;17.950;2023-06-14T01:12:52;102197.62;;;9.80;84.18
72909;BME280;61051;62.624;17.950;2023-06-14T01:15:27;102202.82;;;9.64;85.47
72909;BME280;61051;62.624;17.950;2023-06-14T01:17:57;102201.27;;;9.63;86.01
72909;BME280;61051;62.624;17.950;2023-06-14T01:20:29;102200.80;;;9.55;86.98
72909;BME280;61051;62.624;17.950;2023-06-14T01:22:58;102205.91;;;9.53;86.63
72909;BME280;61051;62.624;17.950;2023-06-14T01:25:27;102206.88;;;9.57;87.83
72909;BME280;61051;62.624;17.950;2023-06-14T01:27:59;102204.37;;;9.53;88.06
72909;BME280;61051;62.624;17.950;2023-06-14T01:30:29;102205.37;;;9.47;87.38
72909;BME280;61051;62.624;17.950;2023-06-14T01:32:59;102205.49;;;9.43;86.67
72909;BME280;61051;62.624;17.950;2023-06-14T01:35:29;102205.41;;;9.45;87.76
72909;BME280;61051;62.624;17.950;2023-06-14T01:37:58;102202.85;;;9.54;87.45
72909;BME280;61051;62.624;17.950;2023-06-14T01:40:26;102201.85;;;9.44;87.10
72909;BME280;61051;62.624;17.950;2023-06-14T01:42:57;102200.91;;;9.42;87.70
72909;BME280;61051;62.624;17.950;2023-06-14T01:45:29;102201.30;;;9.54;86.86
72909;BME280;61051;62.624;17.950;2023-06-14T01:47:58;102200.85;;;9.46;86.64
72909;BME280;61051;62.624;17.950;2023-06-14T01:50:28;102199.25;;;9.43;87.48
72909;BME280;61051;62.624;17.950;2023-06-14T01:52:58;102197.57;;;9.37;87.05
72909;BME280;61051;62.624;17.950;2023-06-14T01:55:26;102197.68;;;9.35;86.12
72909;BME280;61051;62.624;17.950;2023-06-14T01:57:55;102197.44;;;9.55;87.06
72909;BME280;61051;62.624;17.950;2023-06-14T02:00:25;102196.11;;;9.40;87.01
72909;BME280;61051;62.624;17.950;2023-06-14T02:02:54;102197.76;;;9.42;87.09
72909;BME280;61051;62.624;17.950;2023-06-14T02:05:24;102200.47;;;9.54;86.98
72909;BME280;61051;62.624;17.950;2023-06-14T02:07:52;102202.13;;;9.53;86.95
72909;BME280;61051;62.624;17.950;2023-06-14T02:10:22;102200.91;;;9.58;86.64
72909;BME280;61051;62.624;17.950;2023-06-14T02:12:50;102204.04;;;9.60;87.34
72909;BME280;61051;62.624;17.950;2023-06-14T02:15:19;102201.98;;;9.86;86.34
72909;BME280;61051;62.624;17.950;2023-06-14T02:17:47;102202.04;;;9.87;86.00
72909;BME280;61051;62.624;17.950;2023-06-14T02:20:15;102197.79;;;9.98;86.26
72909;BME280;61051;62.624;17.950;2023-06-14T02:22:45;102196.07;;;10.06;86.11
72909;BME280;61051;62.624;17.950;2023-06-14T02:25:14;102197.42;;;10.06;84.94
72909;BME280;61051;62.624;17.950;2023-06-14T02:27:43;102195.63;;;10.11;85.18
72909;BME280;61051;62.624;17.950;2023-06-14T02:30:13;102195.21;;;10.13;84.45
72909;BME280;61051;62.624;17.950;2023-06-14T02:32:41;102196.94;;;10.37;84.06
72909;BME280;61051;62.624;17.950;2023-06-14T02:35:10;102198.90;;;10.30;82.28
72909;BME280;61051;62.624;17.950;2023-06-14T02:37:38;102201.47;;;10.29;82.65
72909;BME280;61051;62.624;17.950;2023-06-14T02:40:07;102201.06;;;10.34;82.77
72909;BME280;61051;62.624;17.950;2023-06-14T02:42:36;102202.89;;;10.34;82.42
72909;BME280;61051;62.624;17.950;2023-06-14T02:45:06;102201.53;;;10.42;83.52
72909;BME280;61051;62.624;17.950;2023-06-14T02:47:36;102200.69;;;10.52;83.01
72909;BME280;61051;62.624;17.950;2023-06-14T02:50:06;102198.47;;;10.64;82.21
72909;BME280;61051;62.624;17.950;2023-06-14T02:52:35;102198.49;;;10.61;79.49
72909;BME280;61051;62.624;17.950;2023-06-14T02:55:03;102200.38;;;10.78;79.82
72909;BME280;61051;62.624;17.950;2023-06-14T02:57:31;102203.78;;;10.95;80.87
72909;BME280;61051;62.624;17.950;2023-06-14T03:00:00;102208.52;;;11.09;79.51
72909;BME280;61051;62.624;17.950;2023-06-14T03:02:29;102207.88;;;11.10;79.19
72909;BME280;61051;62.624;17.950;2023-06-14T03:04:57;102210.35;;;11.06;79.08
72909;BME280;61051;62.624;17.950;2023-06-14T03:07:26;102212.14;;;11.13;78.10
72909;BME280;61051;62.624;17.950;2023-06-14T03:09:55;102216.11;;;11.06;77.95
72909;BME280;61051;62.624;17.950;2023-06-14T03:12:25;102216.51;;;11.23;78.45
72909;BME280;61051;62.624;17.950;2023-06-14T03:14:55;102217.67;;;11.26;77.53
72909;BME280;61051;62.624;17.950;2023-06-14T03:17:24;102220.42;;;11.19;79.22
72909;BME280;61051;62.624;17.950;2023-06-14T03:19:55;102220.21;;;11.20;80.02
72909;BME280;61051;62.624;17.950;2023-06-14T03:22:23;102221.29;;;11.28;78.37
72909;BME280;61051;62.624;17.950;2023-06-14T03:24:52;102221.28;;;11.32;79.69
72909;BME280;61051;62.624;17.950;2023-06-14T03:27:21;102220.03;;;11.49;78.58
72909;BME280;61051;62.624;17.950;2023-06-14T03:29:50;102218.39;;;11.53;79.41
72909;BME280;61051;62.624;17.950;2023-06-14T03:32:19;102220.81;;;11.71;79.37
72909;BME280;61051;62.624;17.950;2023-06-14T03:34:48;102221.42;;;11.80;79.48
72909;BME280;61051;62.624;17.950;2023-06-14T03:37:17;102221.46;;;11.94;79.21
72909;BME280;61051;62.624;17.950;2023-06-14T03:39:46;102220.78;;;11.84;80.43
72909;BME280;61051;62.624;17.950;2023-06-14T03:42:16;102222.80;;;12.12;80.34
72909;BME280;61051;62.624;17.950;2023-06-14T03:44:44;102226.08;;;12.04;80.60
72909;BME280;61051;62.624;17.950;2023-06-14T03:47:12;102225.98;;;12.09;79.21
72909;BME280;61051;62.624;17.950;2023-06-14T03:49:41;102228.04;;;12.31;78.09
72909;BME280;61051;62.624;17.950;2023-06-14T03:52:09;102225.31;;;12.41;76.86
72909;BME280;61051;62.624;17.950;2023-06-14T03:54:38;102225.30;;;12.61;76.52
72909;BME280;61051;62.624;17.950;2023-06-14T03:57:06;102229.09;;;12.67;77.38
72909;BME280;61051;62.624;17.950;2023-06-14T03:59:36;102227.31;;;12.80;76.23
72909;BME280;61051;62.624;17.950;2023-06-14T04:02:59;102225.03;;;12.90;74.76
72909;BME280;61051;62.624;17.950;2023-06-14T04:05:27;102224.26;;;13.10;73.32
72909;BME280;61051;62.624;17.950;2023-06-14T04:07:56;102223.91;;;13.32;72.83
72909;BME280;61051;62.624;17.950;2023-06-14T04:10:25;102224.39;;;13.28;71.65
72909;BME280;61051;62.624;17.950;2023-06-14T04:12:55;102222.28;;;13.34;68.85
72909;BME280;61051;62.624;17.950;2023-06-14T04:15:23;102221.42;;;13.65;67.14
72909;BME280;61051;62.624;17.950;2023-06-14T04:17:54;102221.46;;;13.64;66.12
72909;BME280;61051;62.624;17.950;2023-06-14T04:20:23;102222.53;;;13.66;66.23
72909;BME280;61051;62.624;17.950;2023-06-14T04:22:53;102218.85;;;13.84;66.83
72909;BME280;61051;62.624;17.950;2023-06-14T04:25:22;102222.29;;;14.12;64.59
72909;BME280;61051;62.624;17.950;2023-06-14T04:27:51;102222.83;;;14.20;65.70
72909;BME280;61051;62.624;17.950;2023-06-14T04:30:20;102220.09;;;14.36;66.14
72909;BME280;61051;62.624;17.950;2023-06-14T04:32:49;102219.91;;;14.39;65.73
72909;BME280;61051;62.624;17.950;2023-06-14T04:35:17;102212.76;;;14.57;64.21
72909;BME280;61051;62.624;17.950;2023-06-14T04:37:46;102213.52;;;14.53;65.56
72909;BME280;61051;62.624;17.950;2023-06-14T04:40:15;102212.95;;;14.55;65.16
72909;BME280;61051;62.624;17.950;2023-06-14T04:42:43;102212.27;;;14.59;64.20
72909;BME280;61051;62.624;17.950;2023-06-14T04:45:12;102212.92;;;14.66;64.39
72909;BME280;61051;62.624;17.950;2023-06-14T04:47:40;102212.30;;;14.85;62.32
72909;BME280;61051;62.624;17.950;2023-06-14T04:50:09;102212.64;;;15.13;60.37
72909;BME280;61051;62.624;17.950;2023-06-14T04:52:39;102216.66;;;15.26;58.61
72909;BME280;61051;62.624;17.950;2023-06-14T04:55:08;102212.86;;;15.42;58.46
72909;BME280;61051;62.624;17.950;2023-06-14T04:57:37;102212.04;;;15.64;56.76
72909;BME280;61051;62.624;17.950;2023-06-14T05:00:06;102212.41;;;15.83;57.48
72909;BME280;61051;62.624;17.950;2023-06-14T05:02:35;102208.38;;;15.82;55.86
72909;BME280;61051;62.624;17.950;2023-06-14T05:05:05;102211.13;;;15.93;55.18
72909;BME280;61051;62.624;17.950;2023-06-14T05:07:34;102215.09;;;15.99;54.95
72909;BME280;61051;62.624;17.950;2023-06-14T05:10:05;102216.62;;;16.28;54.70
72909;BME280;61051;62.624;17.950;2023-06-14T05:12:34;102211.83;;;16.50;52.43
72909;BME280;61051;62.624;17.950;2023-06-14T05:15:03;102210.08;;;16.61;51.21
72909;BME280;61051;62.624;17.950;2023-06-14T05:17:36;102210.15;;;16.84;51.26
72909;BME280;61051;62.624;17.950;2023-06-14T05:20:05;102211.16;;;16.91;51.26
72909;BME280;61051;62.624;17.950;2023-06-14T05:22:35;102210.67;;;16.87;49.02
72909;BME280;61051;62.624;17.950;2023-06-14T05:25:04;102210.95;;;16.87;49.27
72909;BME280;61051;62.624;17.950;2023-06-14T05:27:33;102207.37;;;16.99;48.55
72909;BME280;61051;62.624;17.950;2023-06-14T05:30:01;102206.53;;;17.07;48.41
72909;BME280;61051;62.624;17.950;2023-06-14T05:32:30;102206.95;;;17.20;46.72
72909;BME280;61051;62.624;17.950;2023-06-14T05:34:58;102209.10;;;17.35;46.97
72909;BME280;61051;62.624;17.950;2023-06-14T05:37:26;102207.94;;;17.28;45.99
72909;BME280;61051;62.624;17.950;2023-06-14T05:39:55;102209.20;;;17.34;45.42
72909;BME280;61051;62.624;17.950;2023-06-14T05:42:24;102207.82;;;17.51;44.84
72909;BME280;61051;62.624;17.950;2023-06-14T05:44:53;102209.45;;;17.68;45.46
72909;BME280;61051;62.624;17.950;2023-06-14T05:47:23;102209.51;;;17.71;42.86
72909;BME280;61051;62.624;17.950;2023-06-14T05:49:52;102213.18;;;17.99;43.08
72909;BME280;61051;62.624;17.950;2023-06-14T05:52:22;102214.18;;;17.95;42.52
72909;BME280;61051;62.624;17.950;2023-06-14T05:54:50;102217.07;;;18.10;42.92
72909;BME280;61051;62.624;17.950;2023-06-14T05:57:18;102216.87;;;18.23;43.35
72909;BME280;61051;62.624;17.950;2023-06-14T05:59:46;102218.28;;;18.48;41.40
72909;BME280;61051;62.624;17.950;2023-06-14T06:02:16;102217.07;;;18.48;40.69
72909;BME280;61051;62.624;17.950;2023-06-14T06:04:44;102220.33;;;18.58;41.15
72909;BME280;61051;62.624;17.950;2023-06-14T06:07:13;102220.46;;;18.54;41.10
72909;BME280;61051;62.624;17.950;2023-06-14T06:09:41;102217.15;;;18.83;40.28
72909;BME280;61051;62.624;17.950;2023-06-14T06:12:09;102215.19;;;18.68;40.69
72909;BME280;61051;62.624;17.950;2023-06-14T06:14:37;102216.64;;;18.84;40.05
72909;BME280;61051;62.624;17.950;2023-06-14T06:17:05;102216.81;;;18.91;40.21
72909;BME280;61051;62.624;17.950;2023-06-14T06:19:34;102217.53;;;19.00;39.89
72909;BME280;61051;62.624;17.950;2023-06-14T06:22:02;102216.14;;;19.15;42.30
72909;BME280;61051;62.624;17.950;2023-06-14T06:24:30;102217.41;;;19.07;40.11
72909;BME280;61051;62.624;17.950;2023-06-14T06:26:58;102215.04;;;19.23;39.69
72909;BME280;61051;62.624;17.950;2023-06-14T06:29:26;102215.14;;;19.40;39.59
72909;BME280;61051;62.624;17.950;2023-06-14T06:31:55;102220.18;;;19.63;39.34
72909;BME280;61051;62.624;17.950;2023-06-14T06:34:24;102220.60;;;19.63;39.62
72909;BME280;61051;62.624;17.950;2023-06-14T06:36:52;102219.26;;;19.75;39.95
72909;BME280;61051;62.624;17.950;2023-06-14T06:39:21;102220.07;;;19.90;39.68
72909;BME280;61051;62.624;17.950;2023-06-14T06:41:49;102219.79;;;19.98;39.18
72909;BME280;61051;62.624;17.950;2023-06-14T06:44:17;102219.25;;;19.94;39.81
72909;BME280;61051;62.624;17.950;2023-06-14T06:46:45;102222.04;;;20.16;38.67
72909;BME280;61051;62.624;17.950;2023-06-14T06:49:13;102224.79;;;20.39;39.24
72909;BME280;61051;62.624;17.950;2023-06-14T06:51:42;102224.38;;;20.54;39.21
72909;BME280;61051;62.624;17.950;2023-06-14T06:54:12;102225.31;;;20.59;38.84
72909;BME280;61051;62.624;17.950;2023-06-14T06:56:41;102227.89;;;20.67;40.15
72909;BME280;61051;62.624;17.950;2023-06-14T06:59:09;102229.19;;;20.69;39.25
72909;BME280;61051;62.624;17.950;2023-06-14T07:01:37;102232.99;;;20.60;37.45
72909;BME280;61051;62.624;17.950;2023-06-14T07:04:05;102231.29;;;20.72;38.40
72909;BME280;61051;62.624;17.950;2023-06-14T07:06:33;102234.41;;;20.78;39.32
72909;BME280;61051;62.624;17.950;2023-06-14T07:09:02;102234.00;;;20.82;38.80
72909;BME280;61051;62.624;17.950;2023-06-14T07:11:31;102233.88;;;20.85;40.04
72909;BME280;61051;62.624;17.950;2023-06-14T07:13:59;102233.91;;;20.89;38.54
72909;BME280;61051;62.624;17.950;2023-06-14T07:16:28;102235.45;;;20.89;37.65
72909;BME280;61051;62.624;17.950;2023-06-14T07:18:56;102231.94;;;21.14;37.95
72909;BME280;61051;62.624;17.950;2023-06-14T07:21:24;102232.13;;;21.16;38.68
72909;BME280;61051;62.624;17.950;2023-06-14T07:23:55;102232.18;;;21.12;37.45
72909;BME280;61051;62.624;17.950;2023-06-14T07:26:24;102231.47;;;21.15;37.27
72909;BME280;61051;62.624;17.950;2023-06-14T07:28:53;102230.74;;;21.32;38.50
72909;BME280;61051;62.624;17.950;2023-06-14T07:31:22;102232.16;;;21.33;36.90
72909;BME280;61051;62.624;17.950;2023-06-14T07:33:50;102232.18;;;21.49;37.22
72909;BME280;61051;62.624;17.950;2023-06-14T07:36:18;102229.04;;;21.66;36.99
72909;BME280;61051;62.624;17.950;2023-06-14T07:38:47;102228.29;;;21.94;36.20
72909;BME280;61051;62.624;17.950;2023-06-14T07:41:16;102221.05;;;22.20;35.94
72909;BME280;61051;62.624;17.950;2023-06-14T07:43:45;102220.54;;;22.16;35.23
72909;BME280;61051;62.624;17.950;2023-06-14T07:46:14;102217.97;;;22.38;35.33
72909;BME280;61051;62.624;17.950;2023-06-14T07:48:43;102221.49;;;22.19;35.15
72909;BME280;61051;62.624;17.950;2023-06-14T07:51:11;102220.52;;;22.35;35.64
72909;BME280;61051;62.624;17.950;2023-06-14T07:53:40;102220.05;;;22.37;35.31
72909;BME280;61051;62.624;17.950;2023-06-14T07:56:08;102221.45;;;22.54;35.32
72909;BME280;61051;62.624;17.950;2023-06-14T07:58:36;102219.99;;;22.81;34.71
72909;BME280;61051;62.624;17.950;2023-06-14T08:01:04;102221.72;;;22.79;33.96
72909;BME280;61051;62.624;17.950;2023-06-14T08:03:32;102220.92;;;22.78;33.13
72909;BME280;61051;62.624;17.950;2023-06-14T08:06:00;102217.47;;;22.99;33.17
72909;BME280;61051;62.624;17.950;2023-06-14T08:08:30;102215.89;;;23.14;33.34
72909;BME280;61051;62.624;17.950;2023-06-14T08:10:58;102215.50;;;23.20;32.52
72909;BME280;61051;62.624;17.950;2023-06-14T08:13:28;102214.39;;;23.34;33.05
72909;BME280;61051;62.624;17.950;2023-06-14T08:15:57;102210.91;;;23.70;31.50
72909;BME280;61051;62.624;17.950;2023-06-14T08:18:27;102209.42;;;23.96;30.94
72909;BME280;61051;62.624;17.950;2023-06-14T08:20:55;102210.56;;;24.26;30.49
72909;BME280;61051;62.624;17.950;2023-06-14T08:23:24;102212.37;;;24.31;30.09
72909;BME280;61051;62.624;17.950;2023-06-14T08:25:52;102210.49;;;24.27;30.54
72909;BME280;61051;62.624;17.950;2023-06-14T08:28:21;102208.65;;;24.28;29.12
72909;BME280;61051;62.624;17.950;2023-06-14T08:30:51;102208.12;;;24.69;28.74
72909;BME280;61051;62.624;17.950;2023-06-14T08:33:19;102211.76;;;24.55;28.91
72909;BME280;61051;62.624;17.950;2023-06-14T08:35:48;102208.36;;;24.69;27.69
72909;BME280;61051;62.624;17.950;2023-06-14T08:38:17;102208.57;;;24.61;28.95
72909;BME280;61051;62.624;17.950;2023-06-14T08:40:48;102205.97;;;24.82;29.06
72909;BME280;61051;62.624;17.950;2023-06-14T08:43:19;102205.74;;;24.85;28.87
72909;BME280;61051;62.624;17.950;2023-06-14T08:45:48;102202.29;;;25.25;27.82
72909;BME280;61051;62.624;17.950;2023-06-14T08:48:23;102203.19;;;25.68;27.09
72909;BME280;61051;62.624;17.950;2023-06-14T08:50:56;102204.79;;;25.64;27.31
72909;BME280;61051;62.624;17.950;2023-06-14T08:53:25;102200.76;;;25.49;27.22
72909;BME280;61051;62.624;17.950;2023-06-14T08:55:55;102198.39;;;25.74;26.69
72909;BME280;61051;62.624;17.950;2023-06-14T08:58:23;102193.52;;;25.84;28.16
72909;BME280;61051;62.624;17.950;2023-06-14T09:00:54;102191.54;;;25.62;27.75
72909;BME280;61051;62.624;17.950;2023-06-14T09:03:23;102195.71;;;24.90;28.03
72909;BME280;61051;62.624;17.950;2023-06-14T09:05:53;102201.35;;;24.79;28.09
72909;BME280;61051;62.624;17.950;2023-06-14T09:08:24;102201.88;;;24.96;28.65
72909;BME280;61051;62.624;17.950;2023-06-14T09:10:53;102196.93;;;24.99;29.03
72909;BME280;61051;62.624;17.950;2023-06-14T09:13:23;102192.60;;;25.37;27.39
72909;BME280;61051;62.624;17.950;2023-06-14T09:15:53;102196.50;;;25.70;26.47
72909;BME280;61051;62.624;17.950;2023-06-14T09:18:34;102197.36;;;26.09;25.74
72909;BME280;61051;62.624;17.950;2023-06-14T09:21:05;102193.93;;;26.49;26.01
72909;BME280;61051;62.624;17.950;2023-06-14T09:23:37;102194.04;;;26.72;26.48
72909;BME280;61051;62.624;17.950;2023-06-14T09:26:07;102199.17;;;26.94;25.61
72909;BME280;61051;62.624;17.950;2023-06-14T09:28:35;102195.72;;;27.18;26.00
72909;BME280;61051;62.624;17.950;2023-06-14T09:31:05;102193.90;;;27.23;24.70
72909;BME280;61051;62.624;17.950;2023-06-14T09:33:34;102188.07;;;27.32;25.31
72909;BME280;61051;62.624;17.950;2023-06-14T09:36:03;102195.39;;;27.20;23.87
72909;BME280;61051;62.624;17.950;2023-06-14T09:38:34;102190.41;;;27.33;23.53
72909;BME280;61051;62.624;17.950;2023-06-14T09:41:04;102193.61;;;27.66;23.32
72909;BME280;61051;62.624;17.950;2023-06-14T09:43:33;102191.65;;;27.78;22.32
72909;BME280;61051;62.624;17.950;2023-06-14T09:46:03;102190.27;;;27.91;21.89
72909;BME280;61051;62.624;17.950;2023-06-14T09:48:34;102190.96;;;27.83;21.62
72909;BME280;61051;62.624;17.950;2023-06-14T09:51:04;102183.90;;;27.26;21.75
72909;BME280;61051;62.624;17.950;2023-06-14T09:53:35;102190.13;;;27.36;22.35
72909;BME280;61051;62.624;17.950;2023-06-14T09:56:05;102182.65;;;27.46;22.60
72909;BME280;61051;62.624;17.950;2023-06-14T09:58:37;102184.90;;;27.72;22.35
72909;BME280;61051;62.624;17.950;2023-06-14T10:03:28;102177.04;;;27.46;22.38
72909;BME280;61051;62.624;17.950;2023-06-14T10:05:58;102175.09;;;28.05;21.96
72909;BME280;61051;62.624;17.950;2023-06-14T10:08:30;102177.24;;;27.98;22.92
72909;BME280;61051;62.624;17.950;2023-06-14T10:11:02;102179.46;;;28.28;21.89
72909;BME280;61051;62.624;17.950;2023-06-14T10:13:32;102177.62;;;28.58;22.21
72909;BME280;61051;62.624;17.950;2023-06-14T10:16:08;102184.94;;;28.24;21.36
72909;BME280;61051;62.624;17.950;2023-06-14T10:18:45;102173.55;;;27.97;21.07
72909;BME280;61051;62.624;17.950;2023-06-14T10:21:22;102169.68;;;27.90;21.61
72909;BME280;61051;62.624;17.950;2023-06-14T10:23:56;102174.81;;;28.39;22.50
72909;BME280;61051;62.624;17.950;2023-06-14T10:26:27;102170.15;;;28.63;21.23
72909;BME280;61051;62.624;17.950;2023-06-14T10:28:57;102169.99;;;28.66;20.50
72909;BME280;61051;62.624;17.950;2023-06-14T10:31:43;102172.89;;;28.41;20.49
72909;BME280;61051;62.624;17.950;2023-06-14T10:34:21;102174.73;;;28.49;19.83
72909;BME280;61051;62.624;17.950;2023-06-14T10:37:03;102167.33;;;28.34;20.08
72909;BME280;61051;62.624;17.950;2023-06-14T10:39:40;102164.36;;;28.43;20.22
72909;BME280;61051;62.624;17.950;2023-06-14T10:42:09;102157.53;;;28.58;21.18
72909;BME280;61051;62.624;17.950;2023-06-14T10:44:41;102157.21;;;28.76;20.33
72909;BME280;61051;62.624;17.950;2023-06-14T10:47:19;102158.65;;;29.13;19.23
72909;BME280;61051;62.624;17.950;2023-06-14T10:49:50;102163.84;;;28.90;19.67
72909;BME280;61051;62.624;17.950;2023-06-14T10:52:22;102161.08;;;28.78;20.34
72909;BME280;61051;62.624;17.950;2023-06-14T10:55:06;102161.10;;;28.75;19.93
72909;BME280;61051;62.624;17.950;2023-06-14T10:57:35;102164.95;;;28.44;20.34
72909;BME280;61051;62.624;17.950;2023-06-14T11:00:06;102154.53;;;27.80;20.15
72909;BME280;61051;62.624;17.950;2023-06-14T11:03:51;102160.69;;;27.99;20.33
72909;BME280;61051;62.624;17.950;2023-06-14T11:06:22;102155.03;;;28.56;19.53
72909;BME280;61051;62.624;17.950;2023-06-14T11:09:07;102162.35;;;28.78;19.58
72909;BME280;61051;62.624;17.950;2023-06-14T11:11:42;102154.51;;;28.46;19.57
72909;BME280;61051;62.624;17.950;2023-06-14T11:14:12;102150.75;;;28.45;20.04
72909;BME280;61051;62.624;17.950;2023-06-14T11:16:39;102156.88;;;28.59;18.70
72909;BME280;61051;62.624;17.950;2023-06-14T11:19:07;102150.36;;;27.70;19.06
72909;BME280;61051;62.624;17.950;2023-06-14T11:21:40;102154.04;;;27.57;19.12
72909;BME280;61051;62.624;17.950;2023-06-14T11:24:10;102149.18;;;27.59;19.81
72909;BME280;61051;62.624;17.950;2023-06-14T11:26:39;102141.95;;;27.74;19.41
72909;BME280;61051;62.624;17.950;2023-06-14T11:29:08;102148.85;;;28.36;20.45
72909;BME280;61051;62.624;17.950;2023-06-14T11:31:36;102152.21;;;28.75;19.01
72909;BME280;61051;62.624;17.950;2023-06-14T11:34:05;102148.84;;;28.78;18.81
72909;BME280;61051;62.624;17.950;2023-06-14T11:36:34;102153.52;;;28.82;18.90
72909;BME280;61051;62.624;17.950;2023-06-14T11:39:05;102144.29;;;29.55;18.61
72909;BME280;61051;62.624;17.950;2023-06-14T11:41:36;102139.35;;;31.62;16.61
72909;BME280;61051;62.624;17.950;2023-06-14T11:44:05;102133.53;;;32.47;15.36
72909;BME280;61051;62.624;17.950;2023-06-14T11:46:35;102131.07;;;33.25;14.44
72909;BME280;61051;62.624;17.950;2023-06-14T11:49:07;102134.43;;;33.57;14.10
72909;BME280;61051;62.624;17.950;2023-06-14T11:51:36;102136.13;;;33.99;13.70
72909;BME280;61051;62.624;17.950;2023-06-14T11:54:06;102133.67;;;33.33;13.33
72909;BME280;61051;62.624;17.950;2023-06-14T11:56:36;102135.17;;;33.23;13.98
72909;BME280;61051;62.624;17.950;2023-06-14T11:59:05;102130.97;;;33.08;14.90
72909;BME280;61051;62.624;17.950;2023-06-14T12:01:36;102130.19;;;33.41;14.81
72909;BME280;61051;62.624;17.950;2023-06-14T12:04:05;102123.26;;;34.07;14.19
72909;BME280;61051;62.624;17.950;2023-06-14T12:06:34;102124.00;;;34.51;13.77
72909;BME280;61051;62.624;17.950;2023-06-14T12:09:04;102122.40;;;35.02;13.18
72909;BME280;61051;62.624;17.950;2023-06-14T12:11:35;102123.82;;;35.49;12.84
72909;BME280;61051;62.624;17.950;2023-06-14T12:14:04;102126.60;;;35.68;12.19
72909;BME280;61051;62.624;17.950;2023-06-14T12:16:33;102120.82;;;35.72;12.19
72909;BME280;61051;62.624;17.950;2023-06-14T12:19:09;102117.62;;;35.67;11.82
72909;BME280;61051;62.624;17.950;2023-06-14T12:21:39;102116.22;;;35.66;12.67
72909;BME280;61051;62.624;17.950;2023-06-14T12:24:09;102115.89;;;35.48;12.46
72909;BME280;61051;62.624;17.950;2023-06-14T12:26:38;102104.21;;;35.88;12.14
72909;BME280;61051;62.624;17.950;2023-06-14T12:29:08;102103.55;;;36.57;12.31
72909;BME280;61051;62.624;17.950;2023-06-14T12:31:37;102106.22;;;36.53;12.05
72909;BME280;61051;62.624;17.950;2023-06-14T12:34:05;102103.51;;;36.77;12.14
72909;BME280;61051;62.624;17.950;2023-06-14T12:36:33;102108.46;;;36.42;12.01
72909;BME280;61051;62.624;17.950;2023-06-14T12:39:01;102110.12;;;36.10;12.13
72909;BME280;61051;62.624;17.950;2023-06-14T12:41:31;102101.63;;;35.97;12.60
72909;BME280;61051;62.624;17.950;2023-06-14T12:43:58;102102.03;;;36.37;12.41
72909;BME280;61051;62.624;17.950;2023-06-14T12:46:26;102092.26;;;36.60;12.14
72909;BME280;61051;62.624;17.950;2023-06-14T12:48:54;102087.39;;;36.54;12.48
72909;BME280;61051;62.624;17.950;2023-06-14T12:51:22;102092.70;;;36.88;11.82
72909;BME280;61051;62.624;17.950;2023-06-14T12:53:50;102089.53;;;37.56;12.26
72909;BME280;61051;62.624;17.950;2023-06-14T12:56:18;102094.19;;;38.03;10.85